sensor_id;sensor_type;location;lat;lon;timestamp;temperature;humidity
69393;SHT31;56582;44.624;20.378;2023-04-24T10:56:39;17.36;80.09
69393;SHT31;56582;44.624;20.378;2023-04-24T11:02:39;17.09;77.79
69393;SHT31;56582;44.624;20.378;2023-04-24T11:06:07;17.23;79.13
69393;SHT31;56582;44.624;20.378;2023-04-24T11:08:47;17.37;81.54
69393;SHT31;56582;44.624;20.378;2023-04-24T11:11:18;17.24;80.68
69393;SHT31;56582;44.624;20.378;2023-04-24T11:16:42;17.09;82.46
69393;SHT31;56582;44.624;20.378;2023-04-24T11:19:09;17.09;83.54
69393;SHT31;56582;44.624;20.378;2023-04-24T11:22:02;17.19;83.69
69393;SHT31;56582;44.624;20.378;2023-04-24T11:24:48;17.51;83.92
69393;SHT31;56582;44.624;20.378;2023-04-24T11:27:17;17.68;78.76
69393;SHT31;56582;44.624;20.378;2023-04-24T11:32:23;17.87;77.71
69393;SHT31;56582;44.624;20.378;2023-04-24T11:34:54;18.13;77.07
69393;SHT31;56582;44.624;20.378;2023-04-24T11:37:21;18.39;76.41
69393;SHT31;56582;44.624;20.378;2023-04-24T11:39:46;18.37;73.57
69393;SHT31;56582;44.624;20.378;2023-04-24T11:42:14;18.32;76.38
69393;SHT31;56582;44.624;20.378;2023-04-24T11:44:41;18.13;74.94
69393;SHT31;56582;44.624;20.378;2023-04-24T11:47:08;17.87;76.55
69393;SHT31;56582;44.624;20.378;2023-04-24T11:49:36;17.63;76.73
69393;SHT31;56582;44.624;20.378;2023-04-24T11:52:02;17.31;77.20
69393;SHT31;56582;44.624;20.378;2023-04-24T11:54:27;17.31;74.88
69393;SHT31;56582;44.624;20.378;2023-04-24T11:56:53;17.50;73.10
69393;SHT31;56582;44.624;20.378;2023-04-24T11:59:18;17.46;73.87
69393;SHT31;56582;44.624;20.378;2023-04-24T12:01:47;17.39;75.18
69393;SHT31;56582;44.624;20.378;2023-04-24T12:04:15;17.12;76.41
69393;SHT31;56582;44.624;20.378;2023-04-24T12:06:59;16.99;75.58
69393;SHT31;56582;44.624;20.378;2023-04-24T12:09:24;17.02;75.68
69393;SHT31;56582;44.624;20.378;2023-04-24T12:11:56;16.99;77.01
69393;SHT31;56582;44.624;20.378;2023-04-24T12:14:22;16.93;77.62
69393;SHT31;56582;44.624;20.378;2023-04-24T12:16:49;16.98;78.78
69393;SHT31;56582;44.624;20.378;2023-04-24T12:19:22;16.93;79.70
69393;SHT31;56582;44.624;20.378;2023-04-24T12:22:05;16.89;78.41
69393;SHT31;56582;44.624;20.378;2023-04-24T12:24:31;16.99;77.29
69393;SHT31;56582;44.624;20.378;2023-04-24T12:26:57;16.85;77.79
69393;SHT31;56582;44.624;20.378;2023-04-24T12:29:24;16.85;77.96
69393;SHT31;56582;44.624;20.378;2023-04-24T12:31:50;16.98;79.11
69393;SHT31;56582;44.624;20.378;2023-04-24T12:34:21;17.15;78.50
69393;SHT31;56582;44.624;20.378;2023-04-24T12:36:47;17.13;78.23
69393;SHT31;56582;44.624;20.378;2023-04-24T12:39:17;17.20;79.97
69393;SHT31;56582;44.624;20.378;2023-04-24T12:41:58;17.29;77.37
69393;SHT31;56582;44.624;20.378;2023-04-24T12:44:34;17.20;76.54
69393;SHT31;56582;44.624;20.378;2023-04-24T12:47:01;17.29;77.26
69393;SHT31;56582;44.624;20.378;2023-04-24T12:49:27;17.39;75.61
69393;SHT31;56582;44.624;20.378;2023-04-24T12:51:53;17.43;76.93
69393;SHT31;56582;44.624;20.378;2023-04-24T12:54:19;17.40;76.80
69393;SHT31;56582;44.624;20.378;2023-04-24T12:56:44;17.46;75.00
69393;SHT31;56582;44.624;20.378;2023-04-24T12:59:10;17.47;75.57
69393;SHT31;56582;44.624;20.378;2023-04-24T13:01:35;17.53;75.87
69393;SHT31;56582;44.624;20.378;2023-04-24T13:04:00;17.57;74.99
69393;SHT31;56582;44.624;20.378;2023-04-24T13:06:26;17.61;75.12
69393;SHT31;56582;44.624;20.378;2023-04-24T13:08:51;17.43;74.24
69393;SHT31;56582;44.624;20.378;2023-04-24T13:11:17;17.33;74.89
69393;SHT31;56582;44.624;20.378;2023-04-24T13:13:43;17.27;76.37
69393;SHT31;56582;44.624;20.378;2023-04-24T13:16:08;17.34;74.95
69393;SHT31;56582;44.624;20.378;2023-04-24T13:18:34;17.27;74.22
69393;SHT31;56582;44.624;20.378;2023-04-24T13:20:59;17.31;74.66
69393;SHT31;56582;44.624;20.378;2023-04-24T13:23:25;17.33;74.44
69393;SHT31;56582;44.624;20.378;2023-04-24T13:25:51;17.39;73.55
69393;SHT31;56582;44.624;20.378;2023-04-24T13:28:16;17.47;72.86
69393;SHT31;56582;44.624;20.378;2023-04-24T13:30:42;17.63;73.92
69393;SHT31;56582;44.624;20.378;2023-04-24T13:33:07;17.64;71.25
69393;SHT31;56582;44.624;20.378;2023-04-24T13:35:33;17.63;71.70
69393;SHT31;56582;44.624;20.378;2023-04-24T13:37:58;17.77;72.43
69393;SHT31;56582;44.624;20.378;2023-04-24T13:40:24;17.81;72.23
69393;SHT31;56582;44.624;20.378;2023-04-24T13:42:49;17.89;69.51
69393;SHT31;56582;44.624;20.378;2023-04-24T13:45:15;17.87;69.67
69393;SHT31;56582;44.624;20.378;2023-04-24T13:47:40;17.82;69.74
69393;SHT31;56582;44.624;20.378;2023-04-24T13:50:08;17.95;69.54
69393;SHT31;56582;44.624;20.378;2023-04-24T13:52:33;17.91;71.62
69393;SHT31;56582;44.624;20.378;2023-04-24T13:54:59;18.05;69.42
69393;SHT31;56582;44.624;20.378;2023-04-24T13:57:24;17.98;70.34
69393;SHT31;56582;44.624;20.378;2023-04-24T13:59:50;17.89;70.43
69393;SHT31;56582;44.624;20.378;2023-04-24T14:02:15;17.77;69.90
69393;SHT31;56582;44.624;20.378;2023-04-24T14:04:41;17.71;71.22
69393;SHT31;56582;44.624;20.378;2023-04-24T14:07:06;18.01;70.15
69393;SHT31;56582;44.624;20.378;2023-04-24T14:09:33;17.94;71.08
69393;SHT31;56582;44.624;20.378;2023-04-24T14:11:58;17.58;71.56
69393;SHT31;56582;44.624;20.378;2023-04-24T14:14:26;17.81;71.46
69393;SHT31;56582;44.624;20.378;2023-04-24T14:16:51;17.73;70.86
69393;SHT31;56582;44.624;20.378;2023-04-24T14:19:20;17.47;71.80
69393;SHT31;56582;44.624;20.378;2023-04-24T14:21:46;17.50;72.28
69393;SHT31;56582;44.624;20.378;2023-04-24T14:24:11;17.43;72.72
69393;SHT31;56582;44.624;20.378;2023-04-24T14:26:37;17.40;73.55
69393;SHT31;56582;44.624;20.378;2023-04-24T14:29:02;17.30;72.09
69393;SHT31;56582;44.624;20.378;2023-04-24T14:31:27;17.29;71.70
69393;SHT31;56582;44.624;20.378;2023-04-24T14:33:53;17.18;72.57
69393;SHT31;56582;44.624;20.378;2023-04-24T14:36:19;17.20;73.58
69393;SHT31;56582;44.624;20.378;2023-04-24T14:38:44;17.10;72.67
69393;SHT31;56582;44.624;20.378;2023-04-24T14:41:10;17.05;72.79
69393;SHT31;56582;44.624;20.378;2023-04-24T14:43:36;17.06;73.43
69393;SHT31;56582;44.624;20.378;2023-04-24T14:46:03;17.10;73.46
69393;SHT31;56582;44.624;20.378;2023-04-24T14:48:28;17.10;72.69
69393;SHT31;56582;44.624;20.378;2023-04-24T14:50:54;17.13;72.68
69393;SHT31;56582;44.624;20.378;2023-04-24T14:53:19;17.29;72.42
69393;SHT31;56582;44.624;20.378;2023-04-24T14:55:45;17.23;74.11
69393;SHT31;56582;44.624;20.378;2023-04-24T14:58:10;17.16;72.14
69393;SHT31;56582;44.624;20.378;2023-04-24T15:00:36;17.16;72.65
69393;SHT31;56582;44.624;20.378;2023-04-24T15:03:01;17.19;71.44
69393;SHT31;56582;44.624;20.378;2023-04-24T15:05:27;17.33;72.87
69393;SHT31;56582;44.624;20.378;2023-04-24T15:07:52;17.30;72.73
69393;SHT31;56582;44.624;20.378;2023-04-24T15:10:18;17.26;71.98
69393;SHT31;56582;44.624;20.378;2023-04-24T15:12:44;17.29;72.24
69393;SHT31;56582;44.624;20.378;2023-04-24T15:15:09;17.24;72.21
69393;SHT31;56582;44.624;20.378;2023-04-24T15:17:35;17.46;71.24
69393;SHT31;56582;44.624;20.378;2023-04-24T15:20:00;17.41;71.66
69393;SHT31;56582;44.624;20.378;2023-04-24T15:22:26;17.41;72.56
69393;SHT31;56582;44.624;20.378;2023-04-24T15:24:51;17.27;71.74
69393;SHT31;56582;44.624;20.378;2023-04-24T15:27:17;17.20;71.95
69393;SHT31;56582;44.624;20.378;2023-04-24T15:29:42;17.20;71.74
69393;SHT31;56582;44.624;20.378;2023-04-24T15:32:08;17.10;72.66
69393;SHT31;56582;44.624;20.378;2023-04-24T15:34:34;17.00;72.59
69393;SHT31;56582;44.624;20.378;2023-04-24T15:37:00;16.89;72.45
69393;SHT31;56582;44.624;20.378;2023-04-24T15:39:25;16.92;73.50
69393;SHT31;56582;44.624;20.378;2023-04-24T15:41:52;16.91;73.25
69393;SHT31;56582;44.624;20.378;2023-04-24T15:44:18;16.93;71.92
69393;SHT31;56582;44.624;20.378;2023-04-24T15:46:44;16.82;73.34
69393;SHT31;56582;44.624;20.378;2023-04-24T15:49:10;16.75;72.16
69393;SHT31;56582;44.624;20.378;2023-04-24T15:51:35;16.81;72.11
69393;SHT31;56582;44.624;20.378;2023-04-24T15:54:01;16.72;73.37
69393;SHT31;56582;44.624;20.378;2023-04-24T15:56:27;16.76;72.87
69393;SHT31;56582;44.624;20.378;2023-04-24T15:58:52;16.79;73.87
69393;SHT31;56582;44.624;20.378;2023-04-24T16:01:18;16.68;73.63
69393;SHT31;56582;44.624;20.378;2023-04-24T16:03:43;16.71;72.76
69393;SHT31;56582;44.624;20.378;2023-04-24T16:06:10;16.75;73.56
69393;SHT31;56582;44.624;20.378;2023-04-24T16:08:36;16.71;72.47
69393;SHT31;56582;44.624;20.378;2023-04-24T16:11:01;16.78;73.57
69393;SHT31;56582;44.624;20.378;2023-04-24T16:13:27;16.72;73.55
69393;SHT31;56582;44.624;20.378;2023-04-24T16:15:53;16.69;73.86
69393;SHT31;56582;44.624;20.378;2023-04-24T16:18:19;16.64;74.52
69393;SHT31;56582;44.624;20.378;2023-04-24T16:20:45;16.60;74.41
69393;SHT31;56582;44.624;20.378;2023-04-24T16:23:10;16.55;74.85
69393;SHT31;56582;44.624;20.378;2023-04-24T16:25:36;16.40;75.17
69393;SHT31;56582;44.624;20.378;2023-04-24T16:28:02;16.43;75.92
69393;SHT31;56582;44.624;20.378;2023-04-24T16:30:27;16.47;75.30
69393;SHT31;56582;44.624;20.378;2023-04-24T16:32:53;16.47;75.31
69393;SHT31;56582;44.624;20.378;2023-04-24T16:35:18;16.43;76.18
69393;SHT31;56582;44.624;20.378;2023-04-24T16:37:44;16.47;76.24
69393;SHT31;56582;44.624;20.378;2023-04-24T16:40:09;16.35;76.71
69393;SHT31;56582;44.624;20.378;2023-04-24T16:42:36;16.28;76.99
69393;SHT31;56582;44.624;20.378;2023-04-24T16:45:02;16.31;76.85
69393;SHT31;56582;44.624;20.378;2023-04-24T16:47:28;16.16;76.99
69393;SHT31;56582;44.624;20.378;2023-04-24T16:49:53;16.07;77.48
69393;SHT31;56582;44.624;20.378;2023-04-24T16:52:19;15.97;77.24
69393;SHT31;56582;44.624;20.378;2023-04-24T16:54:45;15.99;77.51
69393;SHT31;56582;44.624;20.378;2023-04-24T16:57:10;15.81;77.88
69393;SHT31;56582;44.624;20.378;2023-04-24T16:59:36;15.86;77.90
69393;SHT31;56582;44.624;20.378;2023-04-24T17:02:02;15.66;78.87
69393;SHT31;56582;44.624;20.378;2023-04-24T17:04:28;15.58;78.72
69393;SHT31;56582;44.624;20.378;2023-04-24T17:06:54;15.41;79.29
69393;SHT31;56582;44.624;20.378;2023-04-24T17:09:19;15.35;79.51
69393;SHT31;56582;44.624;20.378;2023-04-24T17:11:45;15.21;79.89
69393;SHT31;56582;44.624;20.378;2023-04-24T17:14:11;15.14;80.22
69393;SHT31;56582;44.624;20.378;2023-04-24T17:16:36;15.06;80.58
69393;SHT31;56582;44.624;20.378;2023-04-24T17:19:02;15.01;81.05
69393;SHT31;56582;44.624;20.378;2023-04-24T17:21:28;14.94;80.80
69393;SHT31;56582;44.624;20.378;2023-04-24T17:23:54;14.72;81.68
69393;SHT31;56582;44.624;20.378;2023-04-24T17:26:20;14.65;81.89
69393;SHT31;56582;44.624;20.378;2023-04-24T17:28:45;14.67;81.76
69393;SHT31;56582;44.624;20.378;2023-04-24T17:31:11;14.55;82.16
69393;SHT31;56582;44.624;20.378;2023-04-24T17:33:36;14.45;82.64
69393;SHT31;56582;44.624;20.378;2023-04-24T17:36:02;14.42;82.89
69393;SHT31;56582;44.624;20.378;2023-04-24T17:38:28;14.33;83.35
69393;SHT31;56582;44.624;20.378;2023-04-24T17:40:54;14.40;83.12
69393;SHT31;56582;44.624;20.378;2023-04-24T17:43:20;14.32;83.43
69393;SHT31;56582;44.624;20.378;2023-04-24T17:45:47;14.22;83.57
69393;SHT31;56582;44.624;20.378;2023-04-24T17:48:13;14.22;83.99
69393;SHT31;56582;44.624;20.378;2023-04-24T17:50:39;14.14;84.23
69393;SHT31;56582;44.624;20.378;2023-04-24T17:53:05;14.15;84.42
69393;SHT31;56582;44.624;20.378;2023-04-24T17:55:31;14.11;84.55
69393;SHT31;56582;44.624;20.378;2023-04-24T17:57:59;14.08;84.91
69393;SHT31;56582;44.624;20.378;2023-04-24T18:00:26;14.05;84.62
69393;SHT31;56582;44.624;20.378;2023-04-24T18:02:51;14.09;84.83
69393;SHT31;56582;44.624;20.378;2023-04-24T18:05:19;14.12;84.48
69393;SHT31;56582;44.624;20.378;2023-04-24T18:07:45;14.08;84.74
69393;SHT31;56582;44.624;20.378;2023-04-24T18:10:10;14.08;84.74
69393;SHT31;56582;44.624;20.378;2023-04-24T18:12:35;14.09;84.67
69393;SHT31;56582;44.624;20.378;2023-04-24T18:15:01;14.09;84.77
69393;SHT31;56582;44.624;20.378;2023-04-24T18:17:26;14.17;84.45
69393;SHT31;56582;44.624;20.378;2023-04-24T18:19:52;14.25;84.24
69393;SHT31;56582;44.624;20.378;2023-04-24T18:22:17;14.19;84.41
69393;SHT31;56582;44.624;20.378;2023-04-24T18:24:43;14.17;84.40
69393;SHT31;56582;44.624;20.378;2023-04-24T18:27:37;14.24;84.15
69393;SHT31;56582;44.624;20.378;2023-04-24T18:30:36;14.19;84.35
69393;SHT31;56582;44.624;20.378;2023-04-24T18:40:02;14.15;84.46
69393;SHT31;56582;44.624;20.378;2023-04-24T18:42:30;14.17;84.83
69393;SHT31;56582;44.624;20.378;2023-04-24T18:45:07;14.21;84.49
69393;SHT31;56582;44.624;20.378;2023-04-24T18:47:56;14.22;84.21
69393;SHT31;56582;44.624;20.378;2023-04-24T18:50:22;14.14;84.85
69393;SHT31;56582;44.624;20.378;2023-04-24T18:52:50;14.17;84.65
69393;SHT31;56582;44.624;20.378;2023-04-24T18:55:41;14.11;84.82
69393;SHT31;56582;44.624;20.378;2023-04-24T18:58:07;14.15;84.47
69393;SHT31;56582;44.624;20.378;2023-04-24T19:00:32;14.12;84.65
69393;SHT31;56582;44.624;20.378;2023-04-24T19:02:58;14.15;84.53
69393;SHT31;56582;44.624;20.378;2023-04-24T19:05:23;14.17;84.58
69393;SHT31;56582;44.624;20.378;2023-04-24T19:07:51;14.22;84.28
69393;SHT31;56582;44.624;20.378;2023-04-24T19:10:26;14.24;84.28
69393;SHT31;56582;44.624;20.378;2023-04-24T19:12:55;14.26;83.71
69393;SHT31;56582;44.624;20.378;2023-04-24T19:15:23;14.38;83.39
69393;SHT31;56582;44.624;20.378;2023-04-24T19:18:00;14.36;83.42
69393;SHT31;56582;44.624;20.378;2023-04-24T19:20:25;14.35;83.56
69393;SHT31;56582;44.624;20.378;2023-04-24T19:23:41;14.45;83.07
69393;SHT31;56582;44.624;20.378;2023-04-24T19:26:11;14.45;83.08
69393;SHT31;56582;44.624;20.378;2023-04-24T19:28:38;14.38;83.15
69393;SHT31;56582;44.624;20.378;2023-04-24T19:31:07;14.32;83.39
69393;SHT31;56582;44.624;20.378;2023-04-24T19:33:32;14.33;83.50
69393;SHT31;56582;44.624;20.378;2023-04-24T19:35:59;14.40;83.27
69393;SHT31;56582;44.624;20.378;2023-04-24T19:38:27;14.38;83.36
69393;SHT31;56582;44.624;20.378;2023-04-24T19:40:53;14.38;83.40
69393;SHT31;56582;44.624;20.378;2023-04-24T19:43:21;14.43;83.33
69393;SHT31;56582;44.624;20.378;2023-04-24T19:45:46;14.43;83.20
69393;SHT31;56582;44.624;20.378;2023-04-24T19:48:12;14.40;83.21
69393;SHT31;56582;44.624;20.378;2023-04-24T19:50:42;14.33;83.46
69393;SHT31;56582;44.624;20.378;2023-04-24T19:53:08;14.38;83.50
69393;SHT31;56582;44.624;20.378;2023-04-24T19:55:33;14.29;83.86
69393;SHT31;56582;44.624;20.378;2023-04-24T19:58:01;14.21;84.09
69393;SHT31;56582;44.624;20.378;2023-04-24T20:00:26;14.24;84.02
69393;SHT31;56582;44.624;20.378;2023-04-24T20:02:52;14.24;84.04
69393;SHT31;56582;44.624;20.378;2023-04-24T20:05:18;14.15;84.34
69393;SHT31;56582;44.624;20.378;2023-04-24T20:07:43;14.21;83.98
69393;SHT31;56582;44.624;20.378;2023-04-24T20:10:10;14.11;84.72
69393;SHT31;56582;44.624;20.378;2023-04-24T20:12:38;14.18;84.20
69393;SHT31;56582;44.624;20.378;2023-04-24T20:15:04;14.29;83.90
69393;SHT31;56582;44.624;20.378;2023-04-24T20:17:32;14.25;84.05
69393;SHT31;56582;44.624;20.378;2023-04-24T20:19:59;14.36;83.82
69393;SHT31;56582;44.624;20.378;2023-04-24T20:22:25;14.26;83.78
69393;SHT31;56582;44.624;20.378;2023-04-24T20:24:50;14.24;83.97
69393;SHT31;56582;44.624;20.378;2023-04-24T20:27:16;14.39;83.67
69393;SHT31;56582;44.624;20.378;2023-04-24T20:29:50;14.28;84.09
69393;SHT31;56582;44.624;20.378;2023-04-24T20:32:23;14.38;83.76
69393;SHT31;56582;44.624;20.378;2023-04-24T20:34:48;14.38;83.77
69393;SHT31;56582;44.624;20.378;2023-04-24T20:37:19;14.22;84.58
69393;SHT31;56582;44.624;20.378;2023-04-24T20:39:49;14.26;84.10
69393;SHT31;56582;44.624;20.378;2023-04-24T20:42:16;14.22;84.54
69393;SHT31;56582;44.624;20.378;2023-04-24T20:44:42;14.18;84.63
69393;SHT31;56582;44.624;20.378;2023-04-24T20:47:31;14.22;84.37
69393;SHT31;56582;44.624;20.378;2023-04-24T20:50:06;14.30;84.20
69393;SHT31;56582;44.624;20.378;2023-04-24T20:52:48;14.55;83.24
69393;SHT31;56582;44.624;20.378;2023-04-24T20:58:24;14.76;82.15
69393;SHT31;56582;44.624;20.378;2023-04-24T21:01:02;14.84;81.96
69393;SHT31;56582;44.624;20.378;2023-04-24T21:03:45;14.79;81.78
69393;SHT31;56582;44.624;20.378;2023-04-24T21:06:11;14.48;82.66
69393;SHT31;56582;44.624;20.378;2023-04-24T21:08:36;14.36;83.34
69393;SHT31;56582;44.624;20.378;2023-04-24T21:11:05;14.48;82.82
69393;SHT31;56582;44.624;20.378;2023-04-24T21:13:35;14.59;82.59
69393;SHT31;56582;44.624;20.378;2023-04-24T21:16:08;14.79;81.42
69393;SHT31;56582;44.624;20.378;2023-04-24T21:18:33;14.65;81.17
69393;SHT31;56582;44.624;20.378;2023-04-24T21:21:01;14.72;81.41
69393;SHT31;56582;44.624;20.378;2023-04-24T21:23:27;14.76;81.60
69393;SHT31;56582;44.624;20.378;2023-04-24T21:25:56;14.63;82.16
69393;SHT31;56582;44.624;20.378;2023-04-24T21:28:21;14.69;82.51
69393;SHT31;56582;44.624;20.378;2023-04-24T21:30:52;14.72;82.62
69393;SHT31;56582;44.624;20.378;2023-04-24T21:33:17;14.50;84.09
69393;SHT31;56582;44.624;20.378;2023-04-24T21:35:43;14.30;84.95
69393;SHT31;56582;44.624;20.378;2023-04-24T21:38:16;14.42;85.28
69393;SHT31;56582;44.624;20.378;2023-04-24T21:40:50;14.40;85.50
69393;SHT31;56582;44.624;20.378;2023-04-24T21:43:16;14.38;85.43
69393;SHT31;56582;44.624;20.378;2023-04-24T21:45:42;14.55;85.53
69393;SHT31;56582;44.624;20.378;2023-04-24T21:48:10;14.49;85.86
69393;SHT31;56582;44.624;20.378;2023-04-24T21:50:48;14.49;85.94
69393;SHT31;56582;44.624;20.378;2023-04-24T21:53:15;14.43;86.28
69393;SHT31;56582;44.624;20.378;2023-04-24T21:55:44;14.25;86.78
69393;SHT31;56582;44.624;20.378;2023-04-24T21:58:12;14.19;87.18
69393;SHT31;56582;44.624;20.378;2023-04-24T22:00:38;14.32;87.34
69393;SHT31;56582;44.624;20.378;2023-04-24T22:03:08;14.30;87.46
69393;SHT31;56582;44.624;20.378;2023-04-24T22:05:36;14.40;87.38
69393;SHT31;56582;44.624;20.378;2023-04-24T22:08:13;14.28;87.78
69393;SHT31;56582;44.624;20.378;2023-04-24T22:10:51;14.05;88.42
69393;SHT31;56582;44.624;20.378;2023-04-24T22:13:17;13.98;88.48
69393;SHT31;56582;44.624;20.378;2023-04-24T22:15:54;14.05;88.19
69393;SHT31;56582;44.624;20.378;2023-04-24T22:18:37;14.00;88.10
69393;SHT31;56582;44.624;20.378;2023-04-24T22:21:05;13.91;87.85
69393;SHT31;56582;44.624;20.378;2023-04-24T22:23:31;13.69;88.60
69393;SHT31;56582;44.624;20.378;2023-04-24T22:25:59;13.40;89.20
69393;SHT31;56582;44.624;20.378;2023-04-24T22:28:24;13.27;88.90
69393;SHT31;56582;44.624;20.378;2023-04-24T22:30:52;13.27;88.40
69393;SHT31;56582;44.624;20.378;2023-04-24T22:33:18;13.16;88.51
69393;SHT31;56582;44.624;20.378;2023-04-24T22:35:46;13.02;89.12
69393;SHT31;56582;44.624;20.378;2023-04-24T22:38:12;13.18;88.58
69393;SHT31;56582;44.624;20.378;2023-04-24T22:40:40;13.22;88.38
69393;SHT31;56582;44.624;20.378;2023-04-24T22:43:08;13.32;88.24
69393;SHT31;56582;44.624;20.378;2023-04-24T22:45:37;13.09;88.94
69393;SHT31;56582;44.624;20.378;2023-04-24T22:48:02;13.18;88.89
69393;SHT31;56582;44.624;20.378;2023-04-24T22:50:38;13.11;89.15
69393;SHT31;56582;44.624;20.378;2023-04-24T22:53:09;12.98;89.50
69393;SHT31;56582;44.624;20.378;2023-04-24T22:55:40;13.18;89.19
69393;SHT31;56582;44.624;20.378;2023-04-24T22:58:08;13.16;89.11
69393;SHT31;56582;44.624;20.378;2023-04-24T23:00:37;13.29;88.86
69393;SHT31;56582;44.624;20.378;2023-04-24T23:03:05;13.33;88.88
69393;SHT31;56582;44.624;20.378;2023-04-24T23:05:33;13.30;88.68
69393;SHT31;56582;44.624;20.378;2023-04-24T23:08:01;13.18;88.82
69393;SHT31;56582;44.624;20.378;2023-04-24T23:10:27;13.23;88.74
69393;SHT31;56582;44.624;20.378;2023-04-24T23:12:52;13.12;89.36
69393;SHT31;56582;44.624;20.378;2023-04-24T23:15:18;13.33;88.62
69393;SHT31;56582;44.624;20.378;2023-04-24T23:17:44;13.13;88.85
69393;SHT31;56582;44.624;20.378;2023-04-24T23:20:10;13.30;88.46
69393;SHT31;56582;44.624;20.378;2023-04-24T23:22:41;13.40;88.30
69393;SHT31;56582;44.624;20.378;2023-04-24T23:25:10;13.50;88.09
69393;SHT31;56582;44.624;20.378;2023-04-24T23:27:35;13.51;88.18
69393;SHT31;56582;44.624;20.378;2023-04-24T23:30:07;13.47;88.48
69393;SHT31;56582;44.624;20.378;2023-04-24T23:32:41;13.51;88.17
69393;SHT31;56582;44.624;20.378;2023-04-24T23:35:16;13.59;87.73
69393;SHT31;56582;44.624;20.378;2023-04-24T23:37:44;13.63;87.42
69393;SHT31;56582;44.624;20.378;2023-04-24T23:40:16;13.63;87.51
69393;SHT31;56582;44.624;20.378;2023-04-24T23:42:50;13.50;87.78
69393;SHT31;56582;44.624;20.378;2023-04-24T23:45:21;13.36;88.04
69393;SHT31;56582;44.624;20.378;2023-04-24T23:47:47;13.46;88.21
69393;SHT31;56582;44.624;20.378;2023-04-24T23:50:17;13.53;88.02
69393;SHT31;56582;44.624;20.378;2023-04-24T23:52:43;13.47;87.79
69393;SHT31;56582;44.624;20.378;2023-04-24T23:55:35;13.39;88.01
69393;SHT31;56582;44.624;20.378;2023-04-24T23:58:00;13.22;88.47
